CW9197 Juva FI current weather conditions

sailwx.info

Wind from 045

Air temperature 1.7° C
Dewpoint -1.1° C

Last reported at 2015-Apr-19 00:45 UTC.
Time now 2015-Apr-19 01:07 UTC

Location: N 61°53' E 027°53'.
View on Google Maps.

See reports from other nearby stations

  
Tides and Currents Weather Stations Pressure Air Temp Water Temp Dewpoint Dewpoint Depression Visibility Wind Speed Wind Dir Waves Ship Positions
date/time (UTC)wind fromknots sea level pressurealtimeterstation pressurevisibilityair tempwater tempwave heightnotes
2015-Apr-19 00:45 045 1.7
2015-Apr-19 00:35 330 1.7
2015-Apr-19 00:25 031 1.7
2015-Apr-19 00:15 335 1.7
2015-Apr-19 00:05 321 1.7
2015-Apr-18 23:55 318 1.7
2015-Apr-18 23:45 316 0 gusting 2 1.7
2015-Apr-18 23:35 345 1.7
2015-Apr-18 23:25 328 0 gusting 3 1.7
2015-Apr-18 23:15 331 0 gusting 1 1.7
2015-Apr-18 23:05 327 0 gusting 3 1.7
2015-Apr-18 22:55 340 0 gusting 4 1.7
2015-Apr-18 22:45 317 1.7
2015-Apr-18 22:35 337 1.1
2015-Apr-18 22:25 338 0 gusting 4 1.1
2015-Apr-18 22:15 344 0 gusting 3 1.1
2015-Apr-18 22:05 340 0 gusting 1 1.1
2015-Apr-18 21:55 340 0 gusting 5 1.1
2015-Apr-18 21:45 345 0 gusting 2 1.1
2015-Apr-18 21:35 330 0 gusting 3 1.1
2015-Apr-18 21:25 331 1 gusting 7 1.1
2015-Apr-18 21:15 341 0 gusting 6 1.1
2015-Apr-18 21:05 308 1 gusting 4 1.1
2015-Apr-18 20:55 287 0 gusting 4 0.6
2015-Apr-18 20:45 264 1.1
2015-Apr-18 20:35 262 1.1
2015-Apr-18 20:25 248 0 gusting 3 1.1
2015-Apr-18 20:15 275 0 gusting 2 1.1
2015-Apr-18 20:05 289 0 gusting 1 1.1
2015-Apr-18 19:55 309 1 gusting 4 0.6
2015-Apr-18 19:45 293 0 gusting 1 0.6
2015-Apr-18 19:35 287 0 gusting 4 1.1
2015-Apr-18 19:25 269 0 gusting 3 1.1
2015-Apr-18 19:15 273 1 gusting 5 1.1
2015-Apr-18 19:05 264 0 gusting 4 1.1
2015-Apr-18 18:55 251 1.7
2015-Apr-18 18:45 277 0 gusting 2 1.7
2015-Apr-18 18:35 303 0 gusting 1 1.7
2015-Apr-18 18:25 332 2.2
2015-Apr-18 18:15 296 0 gusting 2 2.2
2015-Apr-18 18:05 319 0 gusting 3 2.2
2015-Apr-18 17:55 327 0 gusting 2 2.2
2015-Apr-18 17:45 334 2.2
2015-Apr-18 17:35 329 0 gusting 2 2.2
2015-Apr-18 17:25 312 0 gusting 3 2.2
2015-Apr-18 17:15 322 0 gusting 2 2.8
2015-Apr-18 17:05 356 1 gusting 4 2.8
2015-Apr-18 16:55 003 0 gusting 4 2.8
2015-Apr-18 16:45 357 1 gusting 6 2.8
2015-Apr-18 16:35 354 2.8
2015-Apr-18 16:25 012 1 gusting 5 2.8
2015-Apr-18 16:15 009 0 gusting 3 3.3
2015-Apr-18 16:05 011 0 gusting 4 2.8
2015-Apr-18 15:55 036 0 gusting 5 2.8
2015-Apr-18 15:45 034 2 gusting 6 2.8
2015-Apr-18 15:35 034 1 gusting 5 2.8
2015-Apr-18 15:25 359 2 gusting 7 2.8
2015-Apr-18 15:15 356 2 gusting 7 2.8
2015-Apr-18 15:05 004 1 gusting 6 3.3
2015-Apr-18 14:55 004 3 gusting 7 3.3
2015-Apr-18 14:45 011 0 gusting 3 3.3
2015-Apr-18 14:35 005 1 gusting 5 3.3
2015-Apr-18 14:25 001 2 gusting 7 3.3
2015-Apr-18 14:15 001 3 gusting 8 3.3
2015-Apr-18 14:05 019 2 gusting 7 3.9
2015-Apr-18 13:55 012 3 gusting 7 3.9
2015-Apr-18 13:45 019 1 gusting 6 3.9
2015-Apr-18 13:35 014 3 gusting 9 3.9
2015-Apr-18 13:25 001 1 gusting 5 4.4
2015-Apr-18 13:15 338 1 gusting 7 4.4
2015-Apr-18 13:05 011 1 gusting 5 3.9
2015-Apr-18 12:55 012 3 gusting 8 3.9
2015-Apr-18 12:45 007 4 gusting 9 3.9
2015-Apr-18 12:35 339 2 gusting 6 3.9
2015-Apr-18 12:25 349 3 gusting 10 3.9
2015-Apr-18 12:15 329 3 gusting 6 3.9
2015-Apr-18 12:05 348 3 gusting 7 4.4
2015-Apr-18 11:55 005 1 gusting 5 3.9
2015-Apr-18 11:45 018 1 gusting 6 3.3
2015-Apr-18 11:35 017 0 gusting 4 3.3
2015-Apr-18 11:25 043 2 gusting 6 3.3
2015-Apr-18 11:15 023 0 gusting 5 4.4
2015-Apr-18 11:05 015 2 gusting 8 3.9
2015-Apr-18 10:55 357 1 gusting 5 3.9
2015-Apr-18 10:45 012 1 gusting 6 3.3
2015-Apr-18 10:35 029 2 gusting 7 2.8
2015-Apr-18 10:25 042 1 gusting 5 2.8
2015-Apr-18 10:15 001 2 gusting 6 2.8
2015-Apr-18 10:05 005 0 gusting 5 2.8
2015-Apr-18 09:55 346 1 gusting 4 2.8
2015-Apr-18 09:45 319 1 gusting 3 2.8
2015-Apr-18 09:35 337 3 gusting 7 2.8
2015-Apr-18 09:25 335 1 gusting 6 3.3
2015-Apr-18 09:15 297 1 gusting 6 3.3
2015-Apr-18 09:05 280 1 gusting 5 3.3
2015-Apr-18 08:55 322 0 gusting 3 2.8
2015-Apr-18 08:45 330 1 gusting 5 2.8
2015-Apr-18 08:35 332 1 gusting 5 2.8
2015-Apr-18 08:25 306 0 gusting 3 2.8
2015-Apr-18 08:15 321 1 gusting 5 2.8
2015-Apr-18 08:05 331 0 gusting 2 2.8
2015-Apr-18 07:55 340 0 gusting 4 2.2
2015-Apr-18 07:45 338 1 gusting 6 2.8
2015-Apr-18 07:35 330 1 gusting 5 2.8
2015-Apr-18 07:25 347 2 gusting 5 2.2
2015-Apr-18 07:15 344 1 gusting 4 2.8
2015-Apr-18 07:05 341 2 gusting 7 2.8
2015-Apr-18 06:55 327 2 gusting 7 3.3
2015-Apr-18 06:45 019 2 gusting 8 3.3
2015-Apr-18 06:35 007 2 gusting 7 4.4
2015-Apr-18 06:25 045 2 gusting 6 4.4
2015-Apr-18 06:15 047 2 gusting 6 4.4
2015-Apr-18 06:05 044 0 gusting 4 4.4
2015-Apr-18 05:55 352 0 gusting 3 5.0
2015-Apr-18 05:45 020 1 gusting 4 4.4
2015-Apr-18 05:35 009 2 gusting 6 5.6
2015-Apr-18 05:25 359 1 gusting 6 6.1
2015-Apr-18 05:15 353 2 gusting 6 5.6
2015-Apr-18 05:05 351 1 gusting 5 5.6
2015-Apr-18 04:55 345 2 gusting 6 5.0
2015-Apr-18 04:45 337 1 gusting 6 3.9
2015-Apr-18 04:35 003 0 gusting 3 2.2
2015-Apr-18 04:25 357 1 gusting 6 1.7
2015-Apr-18 04:15 355 0 gusting 3 0.6
2015-Apr-18 04:05 013 0 gusting 3 0.6
2015-Apr-18 03:55 012 -0.0
2015-Apr-18 03:45 016 0 gusting 3 -1.1
2015-Apr-18 03:35 014 -0.6
2015-Apr-18 03:25 019 -1.7
2015-Apr-18 03:15 354 0 gusting 2 -1.7
2015-Apr-18 03:05 007 0 gusting 3 -2.2
2015-Apr-18 02:55 036 -2.2
2015-Apr-18 02:45 018 0 gusting 2 -2.2
2015-Apr-18 02:35 012 -2.2
2015-Apr-18 02:25 015 -2.2
2015-Apr-18 02:15 359 0 gusting 3 -2.2
2015-Apr-18 02:05 -1.7
2015-Apr-18 01:55 321 -1.7
2015-Apr-18 01:45 348 0 gusting 3 -1.7
2015-Apr-18 01:35 345 -1.7
2015-Apr-18 01:25 035 -1.7
2015-Apr-18 01:15 022 -1.1
2015-Apr-18 01:05 046 0 gusting 2 -1.1
2015-Apr-18 00:55 050 0 gusting 4 -0.6
2015-Apr-18 00:45 032 0 gusting 2 -0.6
2015-Apr-18 00:35 048 0 gusting 3 -0.6
2015-Apr-18 00:25 019 0 gusting 3 -0.6
2015-Apr-18 00:15 002 0 gusting 4 -0.6
2015-Apr-18 00:05 024 0 gusting 3 -0.6
2015-Apr-17 23:55 -0.0
2015-Apr-17 23:45 003 0 gusting 4 -0.0
2015-Apr-17 23:35 344 0.6
2015-Apr-17 23:25 356 0.6
2015-Apr-17 23:15 355 0.6
2015-Apr-17 23:05 350 0 gusting 2 0.6
2015-Apr-17 22:55 344 0.6
2015-Apr-17 22:45 339 0.6
2015-Apr-17 22:35 329 0.6
2015-Apr-17 22:25 345 0.6
2015-Apr-17 22:15 008 0.6
2015-Apr-17 22:05 016 0 gusting 1 0.6
2015-Apr-17 21:55 012 0 gusting 3 0.6
2015-Apr-17 21:45 040 0 gusting 5 0.6
2015-Apr-17 21:35 355 0 gusting 4 -0.0
2015-Apr-17 21:25 004 0 gusting 4 -0.0
2015-Apr-17 21:15 011 0 gusting 3 -0.0
2015-Apr-17 21:05 024 -0.0
2015-Apr-17 20:55 -0.0
2015-Apr-17 20:45 009 0 gusting 3 -0.6
2015-Apr-17 20:35 010 0 gusting 2 -0.6
2015-Apr-17 20:25 008 0 gusting 4 -0.6
2015-Apr-17 20:15 358 -0.0
2015-Apr-17 20:05 028 -0.0
2015-Apr-17 19:55 052 0.6
2015-Apr-17 19:45 025 0 gusting 2 0.6
2015-Apr-17 19:35 045 0 gusting 3 1.1
2015-Apr-17 19:25 062 1 gusting 4 1.1
2015-Apr-17 19:15 050 0 gusting 3 1.1
2015-Apr-17 19:05 031 1 gusting 6 1.7
2015-Apr-17 18:55 034 1 gusting 5 1.7
2015-Apr-17 18:45 028 0 gusting 5 1.1
2015-Apr-17 18:35 028 0 gusting 2 1.1
2015-Apr-17 18:25 006 1.1
2015-Apr-17 18:15 343 1.7
2015-Apr-17 18:05 038 2.2
2015-Apr-17 17:55 021 0 gusting 6 2.2
2015-Apr-17 17:45 027 1 gusting 6 2.8
2015-Apr-17 17:35 028 2 gusting 7 3.3
2015-Apr-17 17:25 028 3 gusting 7 3.3
2015-Apr-17 17:15 026 4 gusting 10 3.9
2015-Apr-17 17:05 027 3 gusting 9 3.9
2015-Apr-17 16:55 040 2 gusting 7 3.9
2015-Apr-17 16:45 039 2 gusting 7 3.9
2015-Apr-17 16:35 046 2 gusting 6 4.4
2015-Apr-17 16:25 033 3 gusting 8 4.4
2015-Apr-17 16:15 048 2 gusting 10 4.4
2015-Apr-17 16:05 053 3 gusting 9 5.0
2015-Apr-17 15:55 049 3 gusting 13 5.0
2015-Apr-17 15:45 012 4 gusting 8 5.0
2015-Apr-17 15:35 030 2 gusting 7 5.0
2015-Apr-17 15:25 046 2 gusting 8 5.0
2015-Apr-17 15:15 039 4 gusting 11 5.0
2015-Apr-17 15:05 046 2 gusting 6 5.6
2015-Apr-17 14:55 051 3 gusting 8 5.6
2015-Apr-17 14:45 046 3 gusting 8 5.0
2015-Apr-17 14:35 042 1 gusting 6 5.0
2015-Apr-17 14:25 018 3 gusting 9 5.0
2015-Apr-17 14:15 054 3 gusting 7 5.0
2015-Apr-17 14:05 046 2 gusting 6 5.6
2015-Apr-17 13:55 051 5 gusting 10 6.1
2015-Apr-17 13:45 049 6 gusting 12 6.1
2015-Apr-17 13:35 037 4 gusting 9 5.6
2015-Apr-17 02:00 039 2 gusting 7 -0.0
2015-Apr-17 01:50 039 1 gusting 4 -0.0
2015-Apr-17 01:40 046 2 gusting 8 -0.0
2015-Apr-17 01:30 039 1 gusting 6 -0.0
2015-Apr-17 01:20 045 2 gusting 6 -0.0
2015-Apr-17 01:10 042 1 gusting 4 -0.6
2015-Apr-17 01:00 039 1 gusting 5 -0.6